createdAt,value
2018-09-27T04:00:15.688Z,2.35
2018-09-27T04:00:48.467Z,2.70
2018-09-27T04:01:21.063Z,2.37
2018-09-27T04:01:53.668Z,2.55
2018-09-27T04:02:26.267Z,2.45
2018-09-27T04:02:58.852Z,2.35
2018-09-27T04:03:31.441Z,2.52
2018-09-27T04:04:04.048Z,2.42
2018-09-27T04:04:36.656Z,2.37
2018-09-27T04:05:09.275Z,3.40
2018-09-27T04:05:41.929Z,2.00
2018-09-27T04:06:14.765Z,2.70
2018-09-27T04:06:47.368Z,2.02
2018-09-27T04:07:19.976Z,2.72
2018-09-27T04:08:00.175Z,2.35
2018-09-27T04:08:32.785Z,2.50
2018-09-27T04:09:07.043Z,2.40
2018-09-27T04:09:39.650Z,2.20
2018-09-27T04:10:12.277Z,2.33
2018-09-27T04:10:44.948Z,2.90
2018-09-27T04:11:17.578Z,2.67
2018-09-27T04:11:50.242Z,2.67
2018-09-27T04:12:22.862Z,2.60
2018-09-27T04:12:55.493Z,2.90
2018-09-27T04:13:28.108Z,2.20
2018-09-27T04:14:00.732Z,2.33
2018-09-27T04:14:33.329Z,2.87
2018-09-27T04:15:06.228Z,2.80
2018-09-27T04:15:38.851Z,2.22
2018-09-27T04:16:11.488Z,2.05
2018-09-27T04:16:44.103Z,2.60
2018-09-27T04:17:16.710Z,2.20
2018-09-27T04:17:49.388Z,2.90
2018-09-27T04:18:21.980Z,2.37
2018-09-27T04:18:54.567Z,2.72
2018-09-27T04:19:27.168Z,2.40
2018-09-27T04:19:59.785Z,2.67
2018-09-27T04:20:37.195Z,2.85
2018-09-27T04:21:09.804Z,2.22
2018-09-27T04:21:42.488Z,2.30
2018-09-27T04:22:15.117Z,2.30
2018-09-27T04:22:47.730Z,1.90
2018-09-27T04:23:22.477Z,2.60
2018-09-27T04:23:55.175Z,2.37
2018-09-27T04:24:27.718Z,2.37
2018-09-27T04:25:00.319Z,2.60
2018-09-27T04:25:32.941Z,2.40
2018-09-27T04:26:05.813Z,2.40
2018-09-27T04:26:38.420Z,2.00
2018-09-27T04:27:11.067Z,2.42
2018-09-27T04:27:43.754Z,2.22
2018-09-27T04:28:16.398Z,2.62
2018-09-27T04:28:49.043Z,2.70
2018-09-27T04:29:21.676Z,2.58
2018-09-27T04:29:54.388Z,3.20
2018-09-27T04:30:27.001Z,2.60
2018-09-27T04:30:59.620Z,2.70
2018-09-27T04:31:32.217Z,2.50
2018-09-27T04:32:04.842Z,3.02
2018-09-27T04:32:37.483Z,2.50
2018-09-27T04:33:10.097Z,2.50
2018-09-27T04:33:42.741Z,2.58
2018-09-27T04:34:15.349Z,2.87
2018-09-27T04:34:47.955Z,3.05
2018-09-27T04:35:20.580Z,2.72
2018-09-27T04:35:53.192Z,2.85
2018-09-27T04:36:25.824Z,2.72
2018-09-27T04:36:58.443Z,3.17
2018-09-27T04:37:31.090Z,3.10
2018-09-27T04:38:03.949Z,2.67
2018-09-27T04:38:36.556Z,2.50
2018-09-27T04:39:10.685Z,2.30
2018-09-27T04:39:43.328Z,2.87
2018-09-27T04:40:15.953Z,2.62
2018-09-27T04:40:48.595Z,3.00
2018-09-27T04:41:21.252Z,2.33
2018-09-27T04:41:53.863Z,2.87
2018-09-27T04:42:26.480Z,2.42
2018-09-27T04:42:59.119Z,2.70
2018-09-27T04:43:31.768Z,2.60
2018-09-27T04:44:04.387Z,2.60
2018-09-27T04:44:37.012Z,2.85
2018-09-27T04:45:09.629Z,2.40
2018-09-27T04:45:42.280Z,3.55
2018-09-27T04:46:14.888Z,3.12
2018-09-27T04:46:47.531Z,3.00
2018-09-27T04:47:20.156Z,3.87
2018-09-27T04:47:52.777Z,2.58
2018-09-27T04:48:25.396Z,3.20
2018-09-27T04:48:58.033Z,2.85
2018-09-27T04:49:30.677Z,2.65
2018-09-27T04:50:03.319Z,2.35
2018-09-27T04:50:35.929Z,2.95
2018-09-27T04:51:08.552Z,2.70
2018-09-27T04:51:41.196Z,2.37
2018-09-27T04:52:13.800Z,3.12
2018-09-27T04:52:46.400Z,2.70
2018-09-27T04:53:19.004Z,2.75
2018-09-27T04:53:51.601Z,2.92
2018-09-27T04:54:24.304Z,3.08
2018-09-27T04:54:56.921Z,3.00
2018-09-27T04:55:29.548Z,3.10
2018-09-27T04:56:02.190Z,3.05
2018-09-27T04:56:34.787Z,3.22
2018-09-27T04:57:07.433Z,3.25
2018-09-27T04:57:40.052Z,3.27
2018-09-27T04:58:12.764Z,3.05
2018-09-27T04:58:45.384Z,2.80
2018-09-27T04:59:18.004Z,2.47
2018-09-27T04:59:50.674Z,2.45
2018-09-27T05:00:23.305Z,2.60
2018-09-27T05:00:55.909Z,2.27
2018-09-27T05:01:28.523Z,3.40
2018-09-27T05:02:01.128Z,3.60
2018-09-27T05:02:33.791Z,2.72
2018-09-27T05:03:06.445Z,2.70
2018-09-27T05:03:39.101Z,3.22
2018-09-27T05:04:11.653Z,2.52
2018-09-27T05:04:44.260Z,2.60
2018-09-27T05:05:16.905Z,3.22
2018-09-27T05:05:49.510Z,2.85
2018-09-27T05:06:22.164Z,2.30
2018-09-27T05:06:54.728Z,2.80
2018-09-27T05:07:27.324Z,2.95
2018-09-27T05:07:59.928Z,2.67
2018-09-27T05:08:32.515Z,2.95
2018-09-27T05:09:06.180Z,2.85
2018-09-27T05:09:38.831Z,3.02
2018-09-27T05:10:11.460Z,2.87
2018-09-27T05:10:44.118Z,2.95
2018-09-27T05:11:16.759Z,2.90
2018-09-27T05:11:49.377Z,2.70
2018-09-27T05:12:21.989Z,2.50
2018-09-27T05:12:54.632Z,2.83
2018-09-27T05:13:27.276Z,2.60
2018-09-27T05:13:59.968Z,3.05
2018-09-27T05:14:32.557Z,2.92
2018-09-27T05:15:05.182Z,3.00
2018-09-27T05:15:37.858Z,2.77
2018-09-27T05:16:10.452Z,2.45
2018-09-27T05:16:43.052Z,2.98
2018-09-27T05:17:15.675Z,2.70
2018-09-27T05:17:48.284Z,3.00
2018-09-27T05:18:20.908Z,3.00
2018-09-27T05:18:53.545Z,2.90
2018-09-27T05:19:26.141Z,2.55
2018-09-27T05:19:58.736Z,2.45
2018-09-27T05:20:31.369Z,2.80
2018-09-27T05:21:04.009Z,2.70
2018-09-27T05:21:36.718Z,2.87
2018-09-27T05:22:09.301Z,2.50
2018-09-27T05:22:41.908Z,2.00
2018-09-27T05:23:14.506Z,2.70
2018-09-27T05:23:47.120Z,3.00
2018-09-27T05:24:19.713Z,2.90
2018-09-27T05:24:52.321Z,2.77
2018-09-27T05:25:24.933Z,2.80
2018-09-27T05:25:57.769Z,2.70
2018-09-27T05:26:30.379Z,2.80
2018-09-27T05:27:03.049Z,2.60
2018-09-27T05:27:35.707Z,3.02
2018-09-27T05:28:08.410Z,2.27
2018-09-27T05:28:41.009Z,2.83
2018-09-27T05:29:13.616Z,2.87
2018-09-27T05:29:46.489Z,2.60
2018-09-27T05:30:19.076Z,2.17
2018-09-27T05:30:51.684Z,2.40
2018-09-27T05:31:24.291Z,2.77
2018-09-27T05:31:56.904Z,2.90
2018-09-27T05:32:29.528Z,2.80
2018-09-27T05:33:02.137Z,2.95
2018-09-27T05:33:34.758Z,2.70
2018-09-27T05:34:07.364Z,2.70
2018-09-27T05:34:39.969Z,2.65
2018-09-27T05:35:12.564Z,2.45
2018-09-27T05:35:45.162Z,2.75
2018-09-27T05:36:17.793Z,3.20
2018-09-27T05:36:50.410Z,2.10
2018-09-27T05:37:23.001Z,2.55
2018-09-27T05:37:55.649Z,2.98
2018-09-27T05:38:28.258Z,3.00
2018-09-27T05:39:00.855Z,2.90
2018-09-27T05:39:33.471Z,3.20
2018-09-27T05:40:06.104Z,3.25
2018-09-27T05:40:38.706Z,2.95
2018-09-27T05:41:11.333Z,2.47
2018-09-27T05:41:43.927Z,2.92
2018-09-27T05:42:16.533Z,2.67
2018-09-27T05:42:49.143Z,2.50
2018-09-27T05:43:21.784Z,2.77
2018-09-27T05:43:54.394Z,2.62
2018-09-27T05:44:27.039Z,2.72
2018-09-27T05:44:59.649Z,3.20
2018-09-27T05:45:32.247Z,2.92
2018-09-27T05:46:04.945Z,2.77
2018-09-27T05:46:37.567Z,3.00
2018-09-27T05:47:10.188Z,2.60
2018-09-27T05:47:42.787Z,2.02
2018-09-27T05:48:15.393Z,3.08
2018-09-27T05:48:48.037Z,2.70
2018-09-27T05:49:20.632Z,2.35
2018-09-27T05:49:53.312Z,2.42
2018-09-27T05:50:25.883Z,2.85
2018-09-27T05:50:58.484Z,2.70
2018-09-27T05:51:31.135Z,2.42
2018-09-27T05:52:03.763Z,2.40
2018-09-27T05:52:36.648Z,2.70
2018-09-27T05:53:09.261Z,2.22
2018-09-27T05:53:41.856Z,3.00
2018-09-27T05:54:14.484Z,2.85
2018-09-27T05:54:47.107Z,3.25
2018-09-27T05:55:19.732Z,2.75
2018-09-27T05:55:52.399Z,2.65
2018-09-27T05:56:24.953Z,2.60
2018-09-27T05:56:57.575Z,3.00
2018-09-27T05:57:30.184Z,3.20
2018-09-27T05:58:02.837Z,3.10
2018-09-27T05:58:35.505Z,2.83
2018-09-27T05:59:08.452Z,2.40
2018-09-27T05:59:41.109Z,2.92
2018-09-27T06:00:13.731Z,2.90
2018-09-27T06:00:46.366Z,2.30
2018-09-27T06:01:18.990Z,3.00
2018-09-27T06:01:51.603Z,2.62
2018-09-27T06:02:24.237Z,2.85
2018-09-27T06:02:56.858Z,3.12
2018-09-27T06:03:29.485Z,2.55
2018-09-27T06:04:02.095Z,2.52
2018-09-27T06:04:34.707Z,2.70
2018-09-27T06:05:07.389Z,3.02
2018-09-27T06:05:39.995Z,3.20
2018-09-27T06:06:12.601Z,2.60
2018-09-27T06:06:45.209Z,2.80
2018-09-27T06:07:17.827Z,3.17
2018-09-27T06:07:50.453Z,2.70
2018-09-27T06:08:23.057Z,2.90
2018-09-27T06:08:55.678Z,3.05
2018-09-27T06:09:28.300Z,3.05
2018-09-27T06:10:00.954Z,3.08
2018-09-27T06:10:33.608Z,2.60
2018-09-27T06:11:06.230Z,2.75
2018-09-27T06:11:38.828Z,2.85
2018-09-27T06:12:11.425Z,2.77
2018-09-27T06:12:44.034Z,2.72
2018-09-27T06:13:16.659Z,2.70
2018-09-27T06:13:49.272Z,2.95
2018-09-27T06:14:21.875Z,3.27
2018-09-27T06:14:54.500Z,2.90
2018-09-27T06:15:27.137Z,2.60
2018-09-27T06:15:59.823Z,3.08
2018-09-27T06:16:32.444Z,2.85
2018-09-27T06:17:05.373Z,3.40
2018-09-27T06:17:37.990Z,4.00
2018-09-27T06:18:10.592Z,2.70
2018-09-27T06:18:43.207Z,2.90
2018-09-27T06:19:15.823Z,2.90
2018-09-27T06:19:48.512Z,2.95
2018-09-27T06:20:21.068Z,2.80
2018-09-27T06:20:53.695Z,2.40
2018-09-27T06:21:26.328Z,2.58
2018-09-27T06:21:58.932Z,1.92
2018-09-27T06:22:31.532Z,2.65
2018-09-27T06:23:04.160Z,2.70
2018-09-27T06:23:36.765Z,3.58
2018-09-27T06:24:09.375Z,2.58
2018-09-27T06:24:42.013Z,2.70
2018-09-27T06:25:14.615Z,2.90
2018-09-27T06:25:47.226Z,2.65
2018-09-27T06:26:19.814Z,2.95
2018-09-27T06:26:52.776Z,3.22
2018-09-27T06:27:25.400Z,2.10
2018-09-27T06:27:58.058Z,3.12
2018-09-27T06:28:30.661Z,2.22
2018-09-27T06:29:03.309Z,2.40
2018-09-27T06:29:35.917Z,2.75
2018-09-27T06:30:08.336Z,2.95
2018-09-27T06:30:40.941Z,2.90
2018-09-27T06:31:13.548Z,2.40
2018-09-27T06:31:46.164Z,3.12
2018-09-27T06:32:19.013Z,2.90
2018-09-27T06:32:51.628Z,3.17
2018-09-27T06:33:24.273Z,2.90
2018-09-27T06:33:56.852Z,2.80
2018-09-27T06:34:29.468Z,2.55
2018-09-27T06:35:02.100Z,2.70
2018-09-27T06:35:34.695Z,2.92
2018-09-27T06:36:07.305Z,2.87
2018-09-27T06:36:39.929Z,2.85
2018-09-27T06:37:12.540Z,3.20
2018-09-27T06:37:45.172Z,3.00
2018-09-27T06:38:17.835Z,2.95
2018-09-27T06:38:50.469Z,2.83
2018-09-27T06:39:23.072Z,2.65
2018-09-27T06:39:55.679Z,3.25
2018-09-27T06:40:28.277Z,2.50
2018-09-27T06:41:00.877Z,3.22
2018-09-27T06:41:33.552Z,2.90
2018-09-27T06:42:06.137Z,3.15
2018-09-27T06:42:38.740Z,3.35
2018-09-27T06:43:11.386Z,2.90
2018-09-27T06:43:44.008Z,2.90
2018-09-27T06:44:16.604Z,3.05
2018-09-27T06:44:49.208Z,2.85
2018-09-27T06:45:21.810Z,3.08
2018-09-27T06:45:54.421Z,3.35
2018-09-27T06:46:27.011Z,2.87
2018-09-27T06:46:59.617Z,2.98
2018-09-27T06:47:32.216Z,3.35
2018-09-27T06:48:04.863Z,3.50
2018-09-27T06:48:37.516Z,3.10
2018-09-27T06:49:10.147Z,2.87
2018-09-27T06:49:42.753Z,2.85
2018-09-27T06:50:15.364Z,3.30
2018-09-27T06:50:47.952Z,2.87
2018-09-27T06:51:20.532Z,2.80
2018-09-27T06:51:53.213Z,3.52
2018-09-27T06:52:25.919Z,3.60
2018-09-27T06:52:58.517Z,2.50
2018-09-27T06:53:31.124Z,3.37
2018-09-27T06:54:03.796Z,2.83
2018-09-27T06:54:36.393Z,2.58
2018-09-27T06:55:09.128Z,2.70
2018-09-27T06:55:41.780Z,3.08
2018-09-27T06:56:14.316Z,2.58
2018-09-27T06:56:46.916Z,2.95
2018-09-27T06:57:19.519Z,4.25
2018-09-27T06:57:52.120Z,3.00
2018-09-27T06:58:24.892Z,2.80
2018-09-27T06:58:57.528Z,2.92
2018-09-27T06:59:30.164Z,3.25
2018-09-27T07:00:03.098Z,3.08
2018-09-27T07:00:35.681Z,3.25
2018-09-27T07:01:08.409Z,2.60
2018-09-27T07:01:41.011Z,2.62
2018-09-27T07:02:13.624Z,3.30
2018-09-27T07:02:46.235Z,2.87
2018-09-27T07:03:19.080Z,2.60
2018-09-27T07:03:51.686Z,3.10
2018-09-27T07:04:24.324Z,2.62
2018-09-27T07:04:56.961Z,3.33
2018-09-27T07:05:30.045Z,3.30
2018-09-27T07:06:02.653Z,2.77
2018-09-27T07:06:35.268Z,3.05
2018-09-27T07:07:07.985Z,3.02
2018-09-27T07:07:40.584Z,3.20
2018-09-27T07:08:13.189Z,3.15
2018-09-27T07:08:45.793Z,3.80
2018-09-27T07:09:18.445Z,3.05
2018-09-27T07:09:51.068Z,2.72
2018-09-27T07:10:23.768Z,3.47
2018-09-27T07:10:56.411Z,3.22
2018-09-27T07:11:29.016Z,3.17
2018-09-27T07:12:01.711Z,3.25
2018-09-27T07:12:34.321Z,3.37
2018-09-27T07:13:06.872Z,3.25
2018-09-27T07:13:39.490Z,2.83
2018-09-27T07:14:12.095Z,3.75
2018-09-27T07:14:44.709Z,3.27
2018-09-27T07:15:17.328Z,2.72
2018-09-27T07:15:49.970Z,3.27
2018-09-27T07:16:22.602Z,3.45
2018-09-27T07:16:55.217Z,4.20
2018-09-27T07:17:27.835Z,3.47
2018-09-27T07:18:00.836Z,3.12
2018-09-27T07:18:33.503Z,3.67
2018-09-27T07:19:06.393Z,3.30
2018-09-27T07:19:39.026Z,3.08
2018-09-27T07:20:12.010Z,2.95
2018-09-27T07:20:44.661Z,3.80
2018-09-27T07:21:17.270Z,3.40
2018-09-27T07:21:49.880Z,3.17
2018-09-27T07:22:22.487Z,3.50
2018-09-27T07:22:55.084Z,3.92
2018-09-27T07:23:27.695Z,3.77
2018-09-27T07:24:00.424Z,4.10
2018-09-27T07:24:33.023Z,3.45
2018-09-27T07:25:05.829Z,3.55
2018-09-27T07:25:38.350Z,3.70
2018-09-27T07:26:10.964Z,3.40
2018-09-27T07:26:43.651Z,3.47
2018-09-27T07:27:16.240Z,3.47
2018-09-27T07:27:48.864Z,2.92
2018-09-27T07:28:21.491Z,3.52
2018-09-27T07:28:54.112Z,3.77
2018-09-27T07:29:26.724Z,3.42
2018-09-27T07:29:59.322Z,2.85
2018-09-27T07:30:31.992Z,3.47
2018-09-27T07:31:04.657Z,3.92
2018-09-27T07:31:37.232Z,3.42
2018-09-27T07:32:09.917Z,3.20
2018-09-27T07:32:42.877Z,3.30
2018-09-27T07:33:15.537Z,3.85
2018-09-27T07:33:48.204Z,3.50
2018-09-27T07:34:20.831Z,3.47
2018-09-27T07:34:53.428Z,3.70
2018-09-27T07:35:26.033Z,3.15
2018-09-27T07:35:58.643Z,3.33
2018-09-27T07:36:31.287Z,3.42
2018-09-27T07:37:03.953Z,3.25
2018-09-27T07:37:36.576Z,3.15
2018-09-27T07:38:09.189Z,4.00
2018-09-27T07:38:41.839Z,3.62
2018-09-27T07:39:14.453Z,2.95
2018-09-27T07:39:47.069Z,3.00
2018-09-27T07:40:19.688Z,3.95
2018-09-27T07:40:52.334Z,3.50
2018-09-27T07:41:24.949Z,3.37
2018-09-27T07:41:57.560Z,3.42
2018-09-27T07:42:30.161Z,3.10
2018-09-27T07:43:02.815Z,3.83
2018-09-27T07:43:35.433Z,4.17
2018-09-27T07:44:08.700Z,3.00
2018-09-27T07:44:41.361Z,3.12
2018-09-27T07:45:13.964Z,3.22
2018-09-27T07:45:46.590Z,3.80
2018-09-27T07:46:19.191Z,4.15
2018-09-27T07:46:51.800Z,3.10
2018-09-27T07:47:24.418Z,3.70
2018-09-27T07:47:57.050Z,3.22
2018-09-27T07:48:29.729Z,3.85
2018-09-27T07:49:02.326Z,3.95
2018-09-27T07:49:34.917Z,3.77
2018-09-27T07:50:07.553Z,2.90
2018-09-27T07:50:40.213Z,3.42
2018-09-27T07:51:12.802Z,3.70
2018-09-27T07:51:45.423Z,3.40
2018-09-27T07:52:18.125Z,3.33
2018-09-27T07:52:50.748Z,3.52
2018-09-27T07:53:23.352Z,2.90
2018-09-27T07:53:56.803Z,3.37
2018-09-27T07:54:29.433Z,3.35
2018-09-27T07:55:02.037Z,3.80
2018-09-27T07:55:34.653Z,3.45
2018-09-27T07:56:07.424Z,4.03
2018-09-27T07:56:40.084Z,3.40
2018-09-27T07:57:12.718Z,9.25
2018-09-27T07:57:45.324Z,4.97
2018-09-27T07:58:17.940Z,4.35
2018-09-27T07:58:50.540Z,3.90
2018-09-27T07:59:23.189Z,3.45
2018-09-27T07:59:55.801Z,3.72
2018-09-27T08:00:28.408Z,3.10
2018-09-27T08:01:01.020Z,3.60
2018-09-27T08:01:33.659Z,3.40
2018-09-27T08:02:06.276Z,3.67
2018-09-27T08:02:38.995Z,3.90
2018-09-27T08:03:11.574Z,3.62
2018-09-27T08:03:44.157Z,3.25
2018-09-27T08:04:16.908Z,3.87
2018-09-27T08:04:49.496Z,4.15
2018-09-27T08:05:22.109Z,3.67
2018-09-27T08:05:54.733Z,4.60
2018-09-27T08:06:27.340Z,3.60
2018-09-27T08:06:59.949Z,3.80
2018-09-27T08:07:32.551Z,3.98
2018-09-27T08:08:05.496Z,4.25
2018-09-27T08:08:38.162Z,5.95
2018-09-27T08:09:10.711Z,5.47
2018-09-27T08:09:43.325Z,4.15
2018-09-27T08:10:15.977Z,4.92
2018-09-27T08:10:48.592Z,3.98
2018-09-27T08:11:21.359Z,3.15
2018-09-27T08:11:53.853Z,3.72
2018-09-27T08:12:26.439Z,3.60
2018-09-27T08:12:59.036Z,4.00
2018-09-27T08:13:31.632Z,3.30
2018-09-27T08:14:04.319Z,3.42
2018-09-27T08:14:36.942Z,4.25
2018-09-27T08:15:09.558Z,3.20
2018-09-27T08:15:42.208Z,3.33
2018-09-27T08:16:14.816Z,3.80
2018-09-27T08:16:47.453Z,3.50
2018-09-27T08:17:20.107Z,3.65
2018-09-27T08:17:52.688Z,3.27
2018-09-27T08:18:25.285Z,3.58
2018-09-27T08:18:57.908Z,3.15
2018-09-27T08:19:30.507Z,3.50
2018-09-27T08:20:03.495Z,3.47
2018-09-27T08:20:36.186Z,3.00
2018-09-27T08:21:08.881Z,3.60
2018-09-27T08:21:41.390Z,12.85
2018-09-27T08:22:14.014Z,8.30
2018-09-27T08:22:46.638Z,4.60
2018-09-27T08:23:19.281Z,3.77
2018-09-27T08:23:51.886Z,3.05
2018-09-27T08:24:24.505Z,3.40
2018-09-27T08:24:57.109Z,3.60
2018-09-27T08:25:29.712Z,4.17
2018-09-27T08:26:02.328Z,3.83
2018-09-27T08:26:34.997Z,7.75
2018-09-27T08:27:07.614Z,5.37
2018-09-27T08:27:40.237Z,3.75
2018-09-27T08:28:12.864Z,3.25
2018-09-27T08:28:45.472Z,4.62
2018-09-27T08:29:18.076Z,3.47
2018-09-27T08:29:52.032Z,4.03
2018-09-27T08:30:24.663Z,3.90
2018-09-27T08:30:57.381Z,3.83
2018-09-27T08:31:29.903Z,3.15
2018-09-27T08:32:02.540Z,3.17
2018-09-27T08:32:35.222Z,3.70
2018-09-27T08:33:07.792Z,4.33
2018-09-27T08:33:40.424Z,4.42
2018-09-27T08:34:13.047Z,4.58
2018-09-27T08:34:45.656Z,5.20
2018-09-27T08:35:18.280Z,5.35
2018-09-27T08:35:50.996Z,5.50
2018-09-27T08:37:26.980Z,5.20
2018-09-27T08:37:59.591Z,9.43
2018-09-27T08:38:32.253Z,8.75
2018-09-27T08:39:07.604Z,9.45
2018-09-27T08:39:40.224Z,6.78
2018-09-27T08:40:12.829Z,4.87
2018-09-27T08:40:45.438Z,5.55
2018-09-27T08:41:18.033Z,5.55
2018-09-27T08:41:50.640Z,5.50
2018-09-27T08:42:23.265Z,4.83
2018-09-27T08:42:55.906Z,4.40
2018-09-27T08:43:28.517Z,3.90
2018-09-27T08:44:01.125Z,4.10
2018-09-27T08:44:33.800Z,4.03
2018-09-27T08:45:06.661Z,3.77
2018-09-27T08:45:39.125Z,3.85
2018-09-27T08:46:11.707Z,4.25
2018-09-27T08:46:44.313Z,4.10
2018-09-27T08:47:16.924Z,3.62
2018-09-27T08:47:49.537Z,3.72
2018-09-27T08:48:22.160Z,3.70
2018-09-27T08:48:54.771Z,4.15
2018-09-27T08:49:27.400Z,3.60
2018-09-27T08:49:59.999Z,3.47
2018-09-27T08:50:32.605Z,3.80
2018-09-27T08:51:05.246Z,3.90
2018-09-27T08:51:38.141Z,3.40
2018-09-27T08:52:10.768Z,3.40
2018-09-27T08:52:43.384Z,4.05
2018-09-27T08:53:15.985Z,3.65
2018-09-27T08:53:48.660Z,3.52
2018-09-27T08:54:21.265Z,4.25
2018-09-27T08:54:53.863Z,5.10
2018-09-27T08:55:26.558Z,6.92
2018-09-27T08:55:59.213Z,4.70
2018-09-27T08:56:31.839Z,4.62
2018-09-27T08:57:04.452Z,3.85
2018-09-27T08:57:37.104Z,3.50
2018-09-27T08:58:09.696Z,4.00
2018-09-27T08:58:42.317Z,3.67
2018-09-27T08:59:15.253Z,4.30
2018-09-27T08:59:47.856Z,4.20
2018-09-27T09:00:20.529Z,5.70
2018-09-27T09:00:53.139Z,4.85
2018-09-27T09:01:25.859Z,3.90
2018-09-27T09:01:58.584Z,4.70
2018-09-27T09:02:31.207Z,3.83
2018-09-27T09:03:03.812Z,3.58
2018-09-27T09:03:36.556Z,4.85
2018-09-27T09:04:09.053Z,4.50
2018-09-27T09:04:41.716Z,4.25
2018-09-27T09:05:14.315Z,4.30
2018-09-27T09:05:47.088Z,3.80
2018-09-27T09:06:19.693Z,3.00
2018-09-27T09:06:52.297Z,3.40
2018-09-27T09:07:24.960Z,4.22
2018-09-27T09:07:57.544Z,3.87
2018-09-27T09:08:30.158Z,3.60
2018-09-27T09:09:03.288Z,3.72
2018-09-27T09:09:35.917Z,3.90
2018-09-27T09:10:08.595Z,3.50
2018-09-27T09:10:41.216Z,3.65
2018-09-27T09:11:13.828Z,3.50
2018-09-27T09:11:46.428Z,3.85
2018-09-27T09:12:19.029Z,3.30
2018-09-27T09:12:51.628Z,3.35
2018-09-27T09:13:24.259Z,4.00
2018-09-27T09:13:56.857Z,3.22
2018-09-27T09:14:29.461Z,3.85
2018-09-27T09:15:02.075Z,4.20
2018-09-27T09:15:34.740Z,4.72
2018-09-27T09:16:07.454Z,4.28
2018-09-27T09:17:19.276Z,3.80
2018-09-27T09:17:51.874Z,4.17
2018-09-27T09:18:24.489Z,3.50
2018-09-27T09:18:57.100Z,4.17
2018-09-27T09:19:29.734Z,4.10
2018-09-27T09:20:02.421Z,3.50
2018-09-27T09:20:35.062Z,4.28
2018-09-27T09:21:07.682Z,3.62
2018-09-27T09:21:40.415Z,3.75
2018-09-27T09:22:12.964Z,3.52
2018-09-27T09:22:45.573Z,3.65
2018-09-27T09:23:18.187Z,4.75
2018-09-27T09:23:50.797Z,4.08
2018-09-27T09:24:23.508Z,4.45
2018-09-27T09:24:56.112Z,4.03
2018-09-27T09:25:28.732Z,3.98
2018-09-27T09:26:01.473Z,3.77
2018-09-27T09:26:34.033Z,3.98
2018-09-27T09:27:06.643Z,3.70
2018-09-27T09:27:39.288Z,3.37
2018-09-27T09:28:11.900Z,2.90
2018-09-27T09:28:44.513Z,3.52
2018-09-27T09:29:17.159Z,4.17
2018-09-27T09:29:49.849Z,3.60
2018-09-27T09:30:22.432Z,3.40
2018-09-27T09:30:55.041Z,3.90
2018-09-27T09:31:27.818Z,3.90
2018-09-27T09:32:00.424Z,3.70
2018-09-27T09:32:33.016Z,3.10
2018-09-27T09:33:05.668Z,3.70
2018-09-27T09:33:38.302Z,3.30
2018-09-27T09:34:10.906Z,3.58
2018-09-27T09:34:43.521Z,4.10
2018-09-27T09:35:16.134Z,3.58
2018-09-27T09:35:48.806Z,3.70
2018-09-27T09:36:21.636Z,3.80
2018-09-27T09:36:54.324Z,3.25
2018-09-27T09:37:26.937Z,3.10
2018-09-27T09:37:59.540Z,3.50
2018-09-27T09:38:32.132Z,3.42
2018-09-27T09:39:06.683Z,3.60
2018-09-27T09:39:39.314Z,2.83
2018-09-27T09:40:11.933Z,3.10
2018-09-27T09:40:44.549Z,3.20
2018-09-27T09:41:17.168Z,3.62
2018-09-27T09:41:49.776Z,3.45
2018-09-27T09:42:22.424Z,2.83
2018-09-27T09:42:55.029Z,3.60
2018-09-27T09:43:27.625Z,3.20
2018-09-27T09:44:00.240Z,3.00
2018-09-27T09:44:32.856Z,3.17
2018-09-27T09:45:05.628Z,3.25
2018-09-27T09:45:38.240Z,3.35
2018-09-27T09:46:10.904Z,2.72
2018-09-27T09:46:43.560Z,2.85
2018-09-27T09:47:16.221Z,3.15
2018-09-27T09:47:48.864Z,3.08
2018-09-27T09:48:21.481Z,3.15
2018-09-27T09:48:54.088Z,3.02
2018-09-27T09:49:26.690Z,2.77
2018-09-27T09:49:59.342Z,3.40
2018-09-27T09:50:31.940Z,2.65
2018-09-27T09:51:04.605Z,2.58
2018-09-27T09:51:37.234Z,2.87
2018-09-27T09:52:09.860Z,2.50
2018-09-27T09:52:42.461Z,3.30
2018-09-27T09:53:15.100Z,2.92
2018-09-27T09:53:47.726Z,2.80
2018-09-27T09:54:20.336Z,2.70
2018-09-27T09:54:52.941Z,2.58
2018-09-27T09:55:25.565Z,2.85
2018-09-27T09:55:58.190Z,2.62
2018-09-27T09:56:30.800Z,2.40
2018-09-27T09:57:03.416Z,2.87
2018-09-27T09:57:36.015Z,2.30
2018-09-27T09:58:08.612Z,2.70
2018-09-27T09:58:41.276Z,3.47
2018-09-27T09:59:13.876Z,3.20
2018-09-27T09:59:46.497Z,3.27
2018-09-27T10:00:19.112Z,2.77
2018-09-27T10:00:51.732Z,2.95
2018-09-27T10:01:24.339Z,2.55
2018-09-27T10:01:56.944Z,2.75
2018-09-27T10:02:29.663Z,3.02
2018-09-27T10:03:02.284Z,2.90
2018-09-27T10:03:34.889Z,2.60
2018-09-27T10:04:07.561Z,2.40
2018-09-27T10:04:40.191Z,2.45
2018-09-27T10:05:12.796Z,3.25
2018-09-27T10:05:45.413Z,3.25
2018-09-27T10:06:18.028Z,3.27
2018-09-27T10:06:50.662Z,2.52
2018-09-27T10:07:23.269Z,2.60
2018-09-27T10:07:55.896Z,2.55
2018-09-27T10:08:28.496Z,2.35
2018-09-27T10:09:01.197Z,2.20
2018-09-27T10:09:33.776Z,2.60
2018-09-27T10:10:06.549Z,2.12
2018-09-27T10:10:39.180Z,1.95
2018-09-27T10:11:11.787Z,2.30
2018-09-27T10:11:44.396Z,1.95
2018-09-27T10:12:17.004Z,2.25
2018-09-27T10:12:49.604Z,1.98
2018-09-27T10:13:22.246Z,1.70
2018-09-27T10:13:54.848Z,1.90
2018-09-27T10:14:27.457Z,2.20
2018-09-27T10:15:00.096Z,2.20
2018-09-27T10:15:32.710Z,1.62
2018-09-27T10:16:05.320Z,1.60
2018-09-27T10:16:37.916Z,1.75
2018-09-27T10:17:10.535Z,1.90
2018-09-27T10:17:43.130Z,2.00
2018-09-27T10:18:15.753Z,1.80
2018-09-27T10:18:48.388Z,2.05
2018-09-27T10:19:20.996Z,2.00
2018-09-27T10:19:53.596Z,1.55
2018-09-27T10:20:26.260Z,2.42
2018-09-27T10:20:58.880Z,2.20
2018-09-27T10:21:31.600Z,2.00
2018-09-27T10:22:04.221Z,1.67
2018-09-27T10:22:36.820Z,2.10
2018-09-27T10:23:09.829Z,1.95
2018-09-27T10:23:42.464Z,1.60
2018-09-27T10:24:15.072Z,2.10
2018-09-27T10:24:47.680Z,2.22
2018-09-27T10:25:20.302Z,2.00
2018-09-27T10:25:52.952Z,2.02
2018-09-27T10:26:25.563Z,2.40
2018-09-27T10:26:58.180Z,1.98
2018-09-27T10:27:30.805Z,1.90
2018-09-27T10:28:03.467Z,2.25
2018-09-27T10:28:36.073Z,1.80
2018-09-27T10:29:08.685Z,2.08
2018-09-27T10:29:41.299Z,2.00
2018-09-27T10:30:14.377Z,2.05
2018-09-27T10:30:47.008Z,2.27
2018-09-27T10:31:19.673Z,2.15
2018-09-27T10:31:52.296Z,2.55
2018-09-27T10:32:24.901Z,2.20
2018-09-27T10:32:57.529Z,2.40
2018-09-27T10:33:30.140Z,2.58
2018-09-27T10:34:02.760Z,2.45
2018-09-27T10:34:35.437Z,1.90
2018-09-27T10:35:08.022Z,2.40
2018-09-27T10:35:40.633Z,2.42
2018-09-27T10:36:13.267Z,2.45
2018-09-27T10:36:45.905Z,2.08
2018-09-27T10:37:18.527Z,2.15
2018-09-27T10:37:51.135Z,2.10
2018-09-27T10:38:23.948Z,2.35
2018-09-27T10:38:56.568Z,2.55
2018-09-27T10:39:29.180Z,2.25
2018-09-27T10:40:01.804Z,2.70
2018-09-27T10:40:34.409Z,2.45
2018-09-27T10:41:07.028Z,2.47
2018-09-27T10:41:39.835Z,1.98
2018-09-27T10:42:12.489Z,2.27
2018-09-27T10:42:45.131Z,2.35
2018-09-27T10:43:17.720Z,2.30
2018-09-27T10:43:50.325Z,2.27
2018-09-27T10:44:22.931Z,1.85
2018-09-27T10:44:55.754Z,2.00
2018-09-27T10:45:28.360Z,1.90
2018-09-27T10:46:00.965Z,2.08
2018-09-27T10:46:33.580Z,2.50
2018-09-27T10:47:06.475Z,2.10
2018-09-27T10:47:39.120Z,2.00
2018-09-27T10:48:11.736Z,2.37
2018-09-27T10:48:44.336Z,2.08
2018-09-27T10:49:16.945Z,2.17
2018-09-27T10:49:49.524Z,1.92
2018-09-27T10:50:22.112Z,2.42
2018-09-27T10:50:54.735Z,2.30
2018-09-27T10:51:27.405Z,2.70
2018-09-27T10:51:59.995Z,2.55
2018-09-27T10:52:32.596Z,2.10
2018-09-27T10:53:05.413Z,2.52
2018-09-27T10:53:38.021Z,2.50
2018-09-27T10:54:10.848Z,2.20
2018-09-27T10:54:43.463Z,2.37
2018-09-27T10:55:16.068Z,2.67
2018-09-27T10:55:48.692Z,2.60
2018-09-27T10:56:21.317Z,2.12
2018-09-27T10:56:53.912Z,2.40
2018-09-27T10:57:26.529Z,2.80
2018-09-27T10:57:59.143Z,2.80
2018-09-27T10:58:31.776Z,2.30
2018-09-27T10:59:04.433Z,2.80
2018-09-27T10:59:37.085Z,2.60
2018-09-27T11:00:14.209Z,2.77
2018-09-27T11:00:46.820Z,2.20
2018-09-27T11:01:19.428Z,2.92
2018-09-27T11:01:52.045Z,2.30
2018-09-27T11:03:28.037Z,2.25
2018-09-27T11:04:00.841Z,2.08
2018-09-27T11:04:33.446Z,1.75
2018-09-27T11:05:06.085Z,2.10
2018-09-27T11:05:38.732Z,2.20
2018-09-27T11:06:11.356Z,2.08
2018-09-27T11:06:43.972Z,2.08
2018-09-27T11:07:16.585Z,2.33
2018-09-27T11:07:49.185Z,2.30
2018-09-27T11:08:21.780Z,2.55
2018-09-27T11:08:54.395Z,2.02
2018-09-27T11:09:27.033Z,2.33
2018-09-27T11:09:59.657Z,1.95
2018-09-27T11:10:32.320Z,1.98
2018-09-27T11:11:05.036Z,2.33
2018-09-27T11:11:37.893Z,2.20
2018-09-27T11:12:10.493Z,2.50
2018-09-27T11:12:43.092Z,2.22
2018-09-27T11:13:15.724Z,2.27
2018-09-27T11:13:48.327Z,2.45
2018-09-27T11:14:20.946Z,2.20
2018-09-27T11:14:53.590Z,2.10
2018-09-27T11:15:26.210Z,2.10
2018-09-27T11:15:58.821Z,2.10
2018-09-27T11:16:31.653Z,2.42
2018-09-27T11:17:04.413Z,2.20
2018-09-27T11:17:37.125Z,2.35